createdAt,value
2018-04-18T00:01:34.040Z,9.18
2018-04-18T00:04:02.326Z,9.18
2018-04-18T00:06:30.635Z,9.15
2018-04-18T00:08:59.005Z,9.20
2018-04-18T00:11:27.526Z,9.13
2018-04-18T00:13:55.819Z,9.12
2018-04-18T00:16:24.147Z,9.13
2018-04-18T00:18:52.394Z,9.09
2018-04-18T00:21:20.688Z,9.05
2018-04-18T00:23:48.930Z,9.00
2018-04-18T00:26:23.777Z,8.95
2018-04-18T00:28:52.189Z,8.90
2018-04-18T00:31:20.691Z,8.96
2018-04-18T00:33:49.126Z,8.86
2018-04-18T00:36:17.405Z,8.86
2018-04-18T00:38:45.694Z,8.89
2018-04-18T00:41:13.964Z,8.92
2018-04-18T00:43:42.218Z,8.93
2018-04-18T00:46:10.758Z,8.87
2018-04-18T00:48:39.035Z,8.80
2018-04-18T00:51:07.536Z,8.67
2018-04-18T00:53:35.799Z,8.69
2018-04-18T00:56:04.088Z,8.73
2018-04-18T00:58:32.418Z,8.70
2018-04-18T01:01:00.770Z,8.63
2018-04-18T01:03:29.027Z,8.61
2018-04-18T01:05:57.770Z,8.56
2018-04-18T01:08:26.036Z,8.47
2018-04-18T01:10:54.330Z,8.49
2018-04-18T01:13:22.626Z,8.43
2018-04-18T01:15:51.118Z,8.47
2018-04-18T01:18:19.467Z,8.47
2018-04-18T01:20:47.850Z,8.43
2018-04-18T01:23:16.107Z,8.42
2018-04-18T01:25:44.390Z,8.39
2018-04-18T01:28:12.656Z,8.41
2018-04-18T01:30:40.947Z,8.46
2018-04-18T01:33:09.393Z,8.41
2018-04-18T01:35:37.710Z,8.34
2018-04-18T01:38:06.153Z,8.34
2018-04-18T01:40:34.456Z,8.39
2018-04-18T01:43:02.710Z,8.31
2018-04-18T01:45:31.030Z,8.16
2018-04-18T01:47:59.447Z,8.23
2018-04-18T01:50:27.770Z,8.20
2018-04-18T01:52:56.055Z,8.10
2018-04-18T01:55:24.337Z,8.07
2018-04-18T01:57:52.603Z,8.12
2018-04-18T02:00:21.099Z,8.05
2018-04-18T02:02:49.386Z,8.01
2018-04-18T02:05:17.670Z,7.99
2018-04-18T02:07:46.097Z,7.95
2018-04-18T02:10:14.418Z,7.98
2018-04-18T02:12:42.913Z,8.06
2018-04-18T02:15:11.166Z,8.00
2018-04-18T02:17:39.436Z,8.11
2018-04-18T02:20:07.736Z,8.02
2018-04-18T02:22:36.832Z,8.03
2018-04-18T02:25:05.346Z,7.96
2018-04-18T02:27:33.670Z,7.86
2018-04-18T02:30:02.086Z,7.91
2018-04-18T02:32:30.395Z,7.90
2018-04-18T02:34:58.651Z,7.93
2018-04-18T02:37:26.989Z,7.87
2018-04-18T02:39:55.419Z,7.77
2018-04-18T02:42:26.714Z,7.79
2018-04-18T02:44:54.949Z,7.78
2018-04-18T02:47:23.233Z,7.84
2018-04-18T02:49:51.498Z,7.69
2018-04-18T02:52:20.016Z,7.73
2018-04-18T02:54:48.310Z,7.73
2018-04-18T02:57:16.599Z,7.83
2018-04-18T02:59:44.871Z,7.82
2018-04-18T03:02:13.158Z,7.70
2018-04-18T03:04:41.418Z,7.69
2018-04-18T03:07:09.711Z,7.61
2018-04-18T03:09:38.129Z,7.60
2018-04-18T03:12:06.454Z,7.54
2018-04-18T03:14:35.086Z,7.55
2018-04-18T03:17:03.386Z,7.55
2018-04-18T03:19:31.645Z,7.61
2018-04-18T03:22:00.083Z,7.55
2018-04-18T03:24:28.394Z,7.58
2018-04-18T03:26:56.689Z,7.59
2018-04-18T03:29:24.970Z,7.59
2018-04-18T03:31:53.262Z,7.56
2018-04-18T03:34:21.503Z,7.63
2018-04-18T03:36:49.795Z,7.57
2018-04-18T03:39:18.071Z,7.61
2018-04-18T03:41:46.347Z,7.60
2018-04-18T03:44:14.787Z,7.61
2018-04-18T03:46:43.100Z,7.54
2018-04-18T03:49:11.359Z,7.47
2018-04-18T03:51:39.650Z,7.40
2018-04-18T03:54:08.110Z,7.38
2018-04-18T03:56:36.650Z,7.41
2018-04-18T03:59:05.302Z,7.50
2018-04-18T04:04:29.126Z,7.40
2018-04-18T04:06:57.562Z,7.40
2018-04-18T04:09:25.819Z,7.44
2018-04-18T04:11:54.433Z,7.44
2018-04-18T04:14:22.683Z,7.43
2018-04-18T04:17:02.275Z,7.49
2018-04-18T04:22:45.718Z,7.53
2018-04-18T04:25:14.182Z,7.51
2018-04-18T04:27:42.450Z,7.53
2018-04-18T04:30:10.862Z,7.60
2018-04-18T04:32:39.106Z,7.63
2018-04-18T04:35:07.419Z,7.69
2018-04-18T04:37:35.672Z,7.66
2018-04-18T04:40:04.011Z,7.70
2018-04-18T04:42:32.313Z,7.69
2018-04-18T04:45:00.582Z,7.69
2018-04-18T04:47:28.862Z,7.73
2018-04-18T04:49:57.108Z,7.77
2018-04-18T04:52:25.415Z,7.78
2018-04-18T04:54:53.991Z,7.80
2018-04-18T04:57:22.323Z,7.86
2018-04-18T04:59:50.654Z,7.92
2018-04-18T05:02:18.931Z,8.04
2018-04-18T05:04:47.185Z,8.12
2018-04-18T05:07:15.488Z,8.12
2018-04-18T05:09:43.843Z,8.21
2018-04-18T05:12:12.203Z,8.31
2018-04-18T05:14:40.509Z,8.40
2018-04-18T05:17:08.800Z,8.38
2018-04-18T05:19:37.269Z,8.52
2018-04-18T05:22:05.559Z,8.63
2018-04-18T05:24:33.887Z,8.76
2018-04-18T05:27:02.187Z,8.93
2018-04-18T05:29:30.681Z,9.09
2018-04-18T05:31:58.971Z,9.27
2018-04-18T05:34:27.265Z,9.23
2018-04-18T05:36:55.568Z,9.47
2018-04-18T05:39:23.853Z,9.80
2018-04-18T05:41:52.167Z,9.77
2018-04-18T05:44:20.554Z,10.17
2018-04-18T05:46:48.871Z,10.18
2018-04-18T05:49:17.214Z,10.39
2018-04-18T05:51:45.695Z,10.56
2018-04-18T05:54:13.991Z,10.75
2018-04-18T05:56:42.290Z,11.03
2018-04-18T05:59:10.668Z,11.16
2018-04-18T06:01:39.181Z,11.43
2018-04-18T06:04:07.479Z,11.47
2018-04-18T06:06:35.770Z,11.78
2018-04-18T06:09:04.127Z,11.81
2018-04-18T06:11:32.551Z,11.94
2018-04-18T06:14:00.913Z,12.12
2018-04-18T06:16:29.219Z,12.35
2018-04-18T06:18:57.598Z,12.53
2018-04-18T06:21:25.979Z,12.72
2018-04-18T06:23:54.254Z,12.73
2018-04-18T06:26:22.766Z,12.99
2018-04-18T06:28:51.151Z,13.16
2018-04-18T06:31:19.559Z,13.23
2018-04-18T06:33:47.850Z,13.43
2018-04-18T06:36:16.154Z,13.73
2018-04-18T06:38:44.406Z,13.86
2018-04-18T06:41:12.694Z,14.08
2018-04-18T06:43:41.139Z,14.17
2018-04-18T06:46:09.615Z,14.44
2018-04-18T06:48:37.900Z,14.72
2018-04-18T06:51:06.321Z,14.87
2018-04-18T06:53:34.618Z,14.99
2018-04-18T06:56:02.915Z,15.17
2018-04-18T06:58:31.198Z,15.36
2018-04-18T07:00:59.495Z,15.37
2018-04-18T07:03:27.986Z,15.61
2018-04-18T07:05:56.451Z,15.71
2018-04-18T07:08:24.732Z,15.92
2018-04-18T07:10:53.030Z,16.00
2018-04-18T07:13:23.861Z,16.13
2018-04-18T07:15:55.198Z,16.20
2018-04-18T07:18:23.723Z,16.20
2018-04-18T07:20:52.675Z,16.62
2018-04-18T07:23:21.134Z,16.50
2018-04-18T07:25:50.074Z,16.49
2018-04-18T07:28:18.651Z,16.56
2018-04-18T07:30:47.300Z,16.48
2018-04-18T07:33:16.831Z,16.96
2018-04-18T07:35:45.174Z,17.00
2018-04-18T07:38:13.456Z,17.22
2018-04-18T07:40:41.742Z,17.29
2018-04-18T07:43:10.156Z,17.50
2018-04-18T07:45:38.495Z,17.60
2018-04-18T07:48:06.855Z,17.68
2018-04-18T07:50:35.161Z,17.71
2018-04-18T07:53:03.444Z,17.82
2018-04-18T07:56:30.901Z,18.11
2018-04-18T07:58:59.241Z,18.21
2018-04-18T08:01:27.566Z,18.15
2018-04-18T08:03:55.824Z,18.31
2018-04-18T08:06:24.099Z,18.31
2018-04-18T08:08:52.474Z,18.27
2018-04-18T08:11:20.805Z,18.53
2018-04-18T08:13:49.102Z,18.95
2018-04-18T08:16:17.382Z,18.96
2018-04-18T08:18:45.662Z,18.99
2018-04-18T08:21:14.153Z,19.09
2018-04-18T08:23:42.456Z,19.20
2018-04-18T08:26:10.973Z,19.43
2018-04-18T08:28:39.272Z,19.47
2018-04-18T08:31:07.713Z,19.59
2018-04-18T08:33:35.978Z,19.51
2018-04-18T08:36:04.549Z,19.85
2018-04-18T08:38:32.902Z,19.81
2018-04-18T08:41:01.227Z,19.95
2018-04-18T08:43:29.605Z,19.76
2018-04-18T08:45:57.894Z,19.82
2018-04-18T08:48:26.180Z,20.16
2018-04-18T08:50:54.478Z,20.53
2018-04-18T08:53:22.750Z,20.46
2018-04-18T08:55:51.046Z,20.47
2018-04-18T08:58:19.316Z,20.30
2018-04-18T09:00:47.744Z,20.40
2018-04-18T09:03:16.102Z,20.74
2018-04-18T09:05:44.604Z,20.56
2018-04-18T09:08:12.859Z,20.50
2018-04-18T09:10:41.307Z,20.94
2018-04-18T09:13:10.043Z,21.14
2018-04-18T09:15:38.623Z,21.14
2018-04-18T09:18:06.903Z,21.25
2018-04-18T09:20:35.232Z,21.23
2018-04-18T09:23:03.703Z,21.42
2018-04-18T09:25:32.012Z,21.42
2018-04-18T09:28:00.279Z,21.20
2018-04-18T09:30:28.772Z,21.53
2018-04-18T09:32:57.084Z,21.46
2018-04-18T09:35:25.374Z,21.60
2018-04-18T09:37:53.660Z,21.87
2018-04-18T09:40:22.066Z,21.63
2018-04-18T09:42:50.426Z,21.81
2018-04-18T09:45:18.716Z,22.10
2018-04-18T09:47:47.012Z,21.79
2018-04-18T09:50:15.338Z,22.04
2018-04-18T09:52:43.808Z,22.14
2018-04-18T09:55:12.238Z,22.13
2018-04-18T09:57:40.509Z,22.19
2018-04-18T10:00:08.898Z,22.22
2018-04-18T10:02:37.811Z,22.40
2018-04-18T10:05:07.870Z,22.58
2018-04-18T10:07:36.123Z,22.19
2018-04-18T10:10:04.479Z,22.69
2018-04-18T10:12:33.248Z,22.70
2018-04-18T10:15:01.531Z,22.76
2018-04-18T10:17:30.103Z,23.11
2018-04-18T10:19:58.431Z,22.61
2018-04-18T10:22:27.784Z,23.27
2018-04-18T10:24:56.202Z,23.25
2018-04-18T10:27:25.125Z,23.54
2018-04-18T10:29:54.917Z,23.36
2018-04-18T10:32:23.220Z,23.61
2018-04-18T10:34:51.523Z,23.75
2018-04-18T10:37:19.819Z,24.11
2018-04-18T10:39:48.125Z,24.69
2018-04-18T10:42:16.472Z,24.80
2018-04-18T10:44:44.762Z,25.13
2018-04-18T10:47:13.107Z,25.27
2018-04-18T10:49:41.407Z,25.65
2018-04-18T10:52:10.050Z,25.96
2018-04-18T10:54:38.727Z,26.52
2018-04-18T10:57:07.105Z,26.60
2018-04-18T10:59:35.453Z,26.44
2018-04-18T11:02:03.911Z,27.16
2018-04-18T11:04:32.315Z,26.63
2018-04-18T11:07:00.619Z,27.46
2018-04-18T11:09:28.900Z,27.78
2018-04-18T11:11:57.229Z,26.87
2018-04-18T11:14:25.718Z,27.26
2018-04-18T11:16:54.259Z,28.25
2018-04-18T11:19:22.551Z,27.94
2018-04-18T11:21:51.102Z,28.79
2018-04-18T11:24:19.407Z,28.53
2018-04-18T11:26:47.774Z,28.31
2018-04-18T11:29:16.088Z,29.38
2018-04-18T11:31:44.402Z,28.74
2018-04-18T11:34:12.917Z,29.11
2018-04-18T11:36:41.383Z,29.44
2018-04-18T11:39:09.648Z,30.91
2018-04-18T11:41:38.568Z,29.87
2018-04-18T11:44:08.263Z,29.65
2018-04-18T11:46:36.836Z,29.69
2018-04-18T11:49:05.206Z,29.40
2018-04-18T11:51:33.494Z,29.19
2018-04-18T11:54:01.872Z,29.80
2018-04-18T11:56:30.162Z,29.94
2018-04-18T11:58:58.607Z,30.63
2018-04-18T12:01:26.925Z,30.49
2018-04-18T12:03:55.282Z,30.84
2018-04-18T12:06:23.720Z,30.04
2018-04-18T12:08:51.995Z,29.57
2018-04-18T12:11:20.310Z,30.69
2018-04-18T12:13:48.678Z,31.57
2018-04-18T12:16:16.989Z,31.83
2018-04-18T12:18:45.257Z,32.78
2018-04-18T12:21:13.617Z,31.86
2018-04-18T12:23:42.101Z,32.54
2018-04-18T12:26:10.428Z,33.87
2018-04-18T12:28:38.848Z,33.17
2018-04-18T12:31:07.130Z,32.50
2018-04-18T12:33:35.433Z,33.40
2018-04-18T12:36:03.771Z,33.03
2018-04-18T12:38:32.225Z,33.24
2018-04-18T12:41:00.526Z,31.59
2018-04-18T12:43:28.878Z,34.23
2018-04-18T12:45:57.270Z,33.86
2018-04-18T12:48:25.587Z,34.46
2018-04-18T12:50:54.000Z,33.80
2018-04-18T12:53:22.371Z,34.44
2018-04-18T12:55:50.707Z,33.80
2018-04-18T12:58:19.001Z,34.40
2018-04-18T13:00:47.301Z,35.13
2018-04-18T13:03:15.657Z,36.22
2018-04-18T13:05:44.046Z,36.03
2018-04-18T13:08:12.343Z,35.03
2018-04-18T13:10:40.798Z,35.91
2018-04-18T13:13:09.088Z,35.55
2018-04-18T13:15:37.466Z,35.01
2018-04-18T13:18:06.113Z,35.12
2018-04-18T13:20:34.513Z,35.93
2018-04-18T13:23:02.785Z,36.50
2018-04-18T13:25:31.132Z,36.64
2018-04-18T13:27:59.507Z,35.56
2018-04-18T13:30:27.856Z,35.29
2018-04-18T13:32:56.130Z,36.16
2018-04-18T13:35:24.491Z,35.12
2018-04-18T13:37:52.842Z,35.85
2018-04-18T13:40:21.474Z,35.48
2018-04-18T13:42:49.991Z,35.23
2018-04-18T13:45:18.319Z,34.80
2018-04-18T13:47:46.599Z,36.36
2018-04-18T13:50:15.339Z,35.74
2018-04-18T13:52:44.610Z,36.45
2018-04-18T13:55:12.907Z,36.55
2018-04-18T13:57:41.179Z,36.17
2018-04-18T14:00:09.730Z,35.93
2018-04-18T14:02:38.016Z,36.16
2018-04-18T14:05:06.377Z,35.45
2018-04-18T14:07:34.669Z,35.26
2018-04-18T14:10:02.977Z,36.37
2018-04-18T14:12:31.295Z,35.68
2018-04-18T14:14:59.535Z,35.35
2018-04-18T14:17:27.858Z,35.76
2018-04-18T14:19:57.582Z,34.89
2018-04-18T14:22:26.276Z,34.53
2018-04-18T14:24:54.511Z,34.51
2018-04-18T14:27:23.066Z,32.46
2018-04-18T14:29:51.392Z,28.55
2018-04-18T14:32:19.698Z,28.73
2018-04-18T14:34:47.951Z,28.12
2018-04-18T14:37:16.263Z,27.22
2018-04-18T14:39:44.590Z,27.31
2018-04-18T14:42:13.072Z,26.94
2018-04-18T14:44:41.817Z,26.51
2018-04-18T14:47:10.313Z,26.10
2018-04-18T14:49:38.574Z,26.50
2018-04-18T14:52:07.409Z,26.44
2018-04-18T14:54:35.931Z,26.13
2018-04-18T14:57:04.289Z,26.12
2018-04-18T14:59:32.531Z,25.61
2018-04-18T15:02:00.844Z,25.78
2018-04-18T15:04:29.123Z,25.76
2018-04-18T15:06:57.599Z,25.38
2018-04-18T15:09:25.862Z,25.59
2018-04-18T15:11:54.202Z,25.57
2018-04-18T15:14:22.539Z,25.44
2018-04-18T15:16:51.044Z,25.70
2018-04-18T15:19:19.364Z,25.47
2018-04-18T15:21:47.688Z,25.46
2018-04-18T15:24:16.295Z,25.53
2018-04-18T15:26:44.995Z,25.15
2018-04-18T15:29:13.396Z,25.25
2018-04-18T15:31:41.851Z,25.08
2018-04-18T15:34:10.120Z,25.08
2018-04-18T15:36:38.632Z,24.85
2018-04-18T15:39:07.273Z,24.94
2018-04-18T15:41:35.562Z,24.92
2018-04-18T15:44:03.968Z,24.87
2018-04-18T15:46:32.330Z,25.06
2018-04-18T15:49:00.702Z,25.01
2018-04-18T15:51:29.090Z,24.78
2018-04-18T15:53:57.410Z,24.55
2018-04-18T15:56:26.050Z,24.62
2018-04-18T15:58:54.838Z,24.45
2018-04-18T16:01:23.258Z,24.62
2018-04-18T16:03:51.548Z,24.57
2018-04-18T16:06:20.370Z,24.35
2018-04-18T16:08:48.610Z,24.36
2018-04-18T16:11:16.902Z,24.37
2018-04-18T16:13:45.334Z,24.11
2018-04-18T16:16:13.682Z,23.98
2018-04-18T16:18:41.967Z,23.86
2018-04-18T16:21:10.435Z,23.93
2018-04-18T16:23:38.873Z,23.89
2018-04-18T16:26:07.180Z,23.80
2018-04-18T16:28:35.497Z,23.51
2018-04-18T16:31:03.981Z,23.56
2018-04-18T16:33:32.294Z,23.59
2018-04-18T16:36:00.715Z,23.46
2018-04-18T16:38:29.189Z,23.48
2018-04-18T16:40:57.522Z,23.44
2018-04-18T16:43:25.773Z,23.63
2018-04-18T16:46:00.906Z,24.47
2018-04-18T16:48:29.367Z,24.10
2018-04-18T16:50:58.374Z,24.31
2018-04-18T16:53:27.210Z,24.51
2018-04-18T16:55:55.634Z,24.15
2018-04-18T16:58:23.911Z,23.63
2018-04-18T17:00:52.208Z,23.28
2018-04-18T17:03:20.461Z,22.97
2018-04-18T17:05:48.766Z,22.72
2018-04-18T17:08:17.203Z,22.68
2018-04-18T17:10:45.541Z,22.53
2018-04-18T17:13:13.891Z,22.43
2018-04-18T17:15:42.379Z,22.37
2018-04-18T17:18:10.806Z,22.15
2018-04-18T17:20:39.250Z,21.94
2018-04-18T17:23:07.629Z,21.90
2018-04-18T17:25:35.926Z,21.84
2018-04-18T17:28:04.204Z,21.68
2018-04-18T17:30:32.533Z,21.65
2018-04-18T17:33:00.830Z,21.51
2018-04-18T17:35:29.179Z,21.44
2018-04-18T17:37:57.562Z,21.34
2018-04-18T17:40:25.830Z,21.20
2018-04-18T17:42:54.106Z,21.06
2018-04-18T17:45:22.510Z,20.88
2018-04-18T17:47:50.805Z,20.72
2018-04-18T17:50:19.066Z,20.65
2018-04-18T17:52:47.322Z,20.49
2018-04-18T17:55:15.598Z,20.27
2018-04-18T17:57:43.884Z,20.17
2018-04-18T18:00:12.236Z,20.09
2018-04-18T18:02:40.487Z,19.94
2018-04-18T18:05:08.851Z,19.76
2018-04-18T18:07:37.286Z,19.62
2018-04-18T18:10:05.985Z,19.43
2018-04-18T18:12:34.278Z,19.38
2018-04-18T18:15:02.556Z,19.24
2018-04-18T18:17:31.160Z,19.09
2018-04-18T18:19:59.609Z,18.81
2018-04-18T18:22:28.088Z,18.51
2018-04-18T18:24:56.657Z,18.27
2018-04-18T18:27:24.999Z,18.22
2018-04-18T18:29:53.480Z,18.13
2018-04-18T18:32:21.800Z,18.00
2018-04-18T18:34:50.146Z,17.87
2018-04-18T18:37:18.592Z,17.95
2018-04-18T18:39:46.903Z,17.99
2018-04-18T18:42:15.399Z,17.83
2018-04-18T18:44:43.688Z,17.71
2018-04-18T18:47:12.027Z,17.65
2018-04-18T18:49:40.379Z,17.60
2018-04-18T18:52:08.914Z,17.52
2018-04-18T18:54:37.235Z,17.46
2018-04-18T18:57:05.571Z,17.38
2018-04-18T18:59:33.884Z,17.23
2018-04-18T19:02:02.299Z,17.15
2018-04-18T19:04:30.544Z,17.14
2018-04-18T19:06:58.925Z,17.02
2018-04-18T19:09:27.256Z,16.94
2018-04-18T19:11:55.628Z,16.83
2018-04-18T19:14:23.975Z,16.66
2018-04-18T19:16:52.294Z,16.61
2018-04-18T19:19:20.546Z,16.60
2018-04-18T19:21:48.876Z,16.51
2018-04-18T19:24:17.210Z,16.44
2018-04-18T19:26:45.532Z,16.35
2018-04-18T19:29:14.043Z,16.21
2018-04-18T19:31:42.386Z,16.16
2018-04-18T19:34:17.535Z,16.18
2018-04-18T19:36:45.946Z,16.16
2018-04-18T19:39:14.273Z,16.03
2018-04-18T19:41:43.313Z,15.93
2018-04-18T19:44:11.690Z,15.79
2018-04-18T19:46:40.020Z,15.77
2018-04-18T19:49:08.322Z,15.73
2018-04-18T19:51:36.736Z,15.68
2018-04-18T19:54:05.217Z,15.70
2018-04-18T19:56:33.586Z,15.64
2018-04-18T19:59:02.062Z,15.57
2018-04-18T20:01:30.372Z,15.34
2018-04-18T20:03:58.667Z,15.21
2018-04-18T20:06:27.100Z,15.17
2018-04-18T20:08:55.426Z,15.20
2018-04-18T20:11:23.815Z,15.11
2018-04-18T20:13:52.105Z,15.03
2018-04-18T20:16:20.421Z,14.90
2018-04-18T20:18:48.687Z,14.86
2018-04-18T20:21:17.021Z,14.76
2018-04-18T20:23:45.450Z,14.80
2018-04-18T20:26:13.804Z,14.76
2018-04-18T20:28:42.095Z,14.73
2018-04-18T20:31:10.421Z,14.68
2018-04-18T20:33:38.958Z,14.68
2018-04-18T20:36:07.351Z,14.54
2018-04-18T20:38:35.672Z,14.66
2018-04-18T20:41:04.042Z,14.70
2018-04-18T20:43:32.634Z,14.30
2018-04-18T20:46:01.177Z,14.19
2018-04-18T20:51:03.954Z,14.20
2018-04-18T20:53:32.346Z,14.17
2018-04-18T20:56:00.661Z,14.16
2018-04-18T20:58:29.083Z,14.05
2018-04-18T21:00:57.427Z,14.05
2018-04-18T21:03:25.666Z,14.07
2018-04-18T21:05:53.968Z,14.00
2018-04-18T21:08:22.286Z,13.93
2018-04-18T21:10:50.714Z,13.76
2018-04-18T21:13:18.966Z,13.74
2018-04-18T21:15:47.305Z,13.74
2018-04-18T21:18:15.614Z,13.64
2018-04-18T21:20:44.184Z,13.68
2018-04-18T21:23:12.556Z,13.67
2018-04-18T21:25:40.857Z,13.65
2018-04-18T21:28:09.133Z,13.63
2018-04-18T21:30:37.842Z,13.58
2018-04-18T21:33:06.148Z,13.43
2018-04-18T21:35:34.483Z,13.34
2018-04-18T21:38:02.745Z,13.32
2018-04-18T21:40:31.034Z,13.31
2018-04-18T21:42:59.302Z,13.29
2018-04-18T21:45:27.724Z,13.21
2018-04-18T21:47:56.035Z,13.19
2018-04-18T21:50:24.599Z,13.19
2018-04-18T21:52:52.870Z,13.19
2018-04-18T21:55:21.167Z,13.03
2018-04-18T21:57:49.466Z,12.92
2018-04-18T22:00:18.006Z,12.92
2018-04-18T22:02:46.312Z,12.99
2018-04-18T22:05:15.550Z,12.90
2018-04-18T22:07:43.812Z,12.90
2018-04-18T22:10:12.127Z,12.93
2018-04-18T22:12:40.411Z,12.81
2018-04-18T22:15:08.866Z,12.81
2018-04-18T22:17:37.117Z,12.76
2018-04-18T22:20:05.495Z,12.75
2018-04-18T22:22:33.966Z,12.73
2018-04-18T22:25:02.223Z,12.69
2018-04-18T22:27:30.531Z,12.68
2018-04-18T22:29:58.792Z,12.78
2018-04-18T22:32:27.098Z,12.75
2018-04-18T22:34:55.373Z,12.65
2018-04-18T22:37:23.677Z,12.58
2018-04-18T22:39:51.990Z,12.67
2018-04-18T22:42:20.404Z,12.48
2018-04-18T22:44:48.710Z,12.37
2018-04-18T22:47:17.278Z,12.46
2018-04-18T22:49:45.558Z,12.41
2018-04-18T22:52:13.956Z,12.36
2018-04-18T22:54:42.250Z,12.35
2018-04-18T22:57:10.663Z,12.26
2018-04-18T22:59:38.959Z,12.28
2018-04-18T23:02:08.240Z,12.19
2018-04-18T23:05:35.790Z,12.16
2018-04-18T23:08:04.159Z,12.17
2018-04-18T23:10:32.437Z,12.01
2018-04-18T23:13:00.815Z,12.06
2018-04-18T23:15:29.302Z,12.12
2018-04-18T23:17:57.627Z,12.04
2018-04-18T23:20:25.948Z,11.94
2018-04-18T23:22:54.194Z,11.86
2018-04-18T23:25:22.645Z,11.79
2018-04-18T23:27:51.542Z,11.70
2018-04-18T23:30:19.827Z,11.86
2018-04-18T23:32:48.263Z,11.85
2018-04-18T23:35:16.626Z,11.92
2018-04-18T23:37:44.939Z,11.87
2018-04-18T23:40:13.320Z,11.84
2018-04-18T23:42:41.699Z,11.73
2018-04-18T23:45:09.997Z,11.66
2018-04-18T23:47:38.351Z,11.72
2018-04-18T23:50:06.922Z,11.73
2018-04-18T23:52:35.183Z,11.63
2018-04-18T23:55:03.642Z,11.63
2018-04-18T23:57:32.055Z,11.55
